sensor_id;sensor_type;location;lat;lon;timestamp;P1;durP1;ratioP1;P2;durP2;ratioP2
36787;SDS011;22738;45.560;9.434;2023-06-26T00:04:55;5.97;;;4.32;;
36787;SDS011;22738;45.560;9.434;2023-06-26T00:11:36;6.82;;;4.78;;
36787;SDS011;22738;45.560;9.434;2023-06-26T00:18:17;6.40;;;4.10;;
36787;SDS011;22738;45.560;9.434;2023-06-26T00:25:01;6.90;;;4.05;;
36787;SDS011;22738;45.560;9.434;2023-06-26T00:31:43;8.13;;;4.90;;
36787;SDS011;22738;45.560;9.434;2023-06-26T00:38:25;8.88;;;4.30;;
36787;SDS011;22738;45.560;9.434;2023-06-26T00:45:06;7.85;;;4.85;;
36787;SDS011;22738;45.560;9.434;2023-06-26T00:51:48;7.45;;;4.13;;
36787;SDS011;22738;45.560;9.434;2023-06-26T00:58:29;7.32;;;4.90;;
36787;SDS011;22738;45.560;9.434;2023-06-26T01:05:11;4.95;;;3.70;;
36787;SDS011;22738;45.560;9.434;2023-06-26T01:12:03;6.63;;;4.03;;
36787;SDS011;22738;45.560;9.434;2023-06-26T01:18:44;7.47;;;4.30;;
36787;SDS011;22738;45.560;9.434;2023-06-26T01:25:34;9.25;;;4.60;;
36787;SDS011;22738;45.560;9.434;2023-06-26T01:32:32;8.57;;;4.07;;
36787;SDS011;22738;45.560;9.434;2023-06-26T01:39:15;6.10;;;4.15;;
36787;SDS011;22738;45.560;9.434;2023-06-26T01:46:01;7.25;;;4.13;;
36787;SDS011;22738;45.560;9.434;2023-06-26T01:53:19;6.00;;;4.05;;
36787;SDS011;22738;45.560;9.434;2023-06-26T02:00:07;10.13;;;4.30;;
36787;SDS011;22738;45.560;9.434;2023-06-26T02:06:55;7.47;;;4.28;;
36787;SDS011;22738;45.560;9.434;2023-06-26T02:13:36;5.93;;;4.22;;
36787;SDS011;22738;45.560;9.434;2023-06-26T02:20:18;8.27;;;4.38;;
36787;SDS011;22738;45.560;9.434;2023-06-26T02:26:59;6.88;;;4.60;;
36787;SDS011;22738;45.560;9.434;2023-06-26T02:33:41;7.15;;;4.88;;
36787;SDS011;22738;45.560;9.434;2023-06-26T02:40:23;5.50;;;3.97;;
36787;SDS011;22738;45.560;9.434;2023-06-26T02:47:06;9.13;;;5.33;;
36787;SDS011;22738;45.560;9.434;2023-06-26T02:53:51;9.38;;;5.47;;
36787;SDS011;22738;45.560;9.434;2023-06-26T03:00:32;7.47;;;4.65;;
36787;SDS011;22738;45.560;9.434;2023-06-26T03:07:16;10.18;;;4.93;;
36787;SDS011;22738;45.560;9.434;2023-06-26T03:13:58;10.60;;;5.07;;
36787;SDS011;22738;45.560;9.434;2023-06-26T03:20:39;7.03;;;4.47;;
36787;SDS011;22738;45.560;9.434;2023-06-26T03:27:20;8.30;;;4.65;;
36787;SDS011;22738;45.560;9.434;2023-06-26T03:34:03;6.70;;;4.55;;
36787;SDS011;22738;45.560;9.434;2023-06-26T03:40:44;13.52;;;4.95;;
36787;SDS011;22738;45.560;9.434;2023-06-26T03:47:25;7.80;;;4.63;;
36787;SDS011;22738;45.560;9.434;2023-06-26T03:54:06;5.88;;;4.10;;
36787;SDS011;22738;45.560;9.434;2023-06-26T04:07:31;9.73;;;4.10;;
36787;SDS011;22738;45.560;9.434;2023-06-26T04:14:13;6.00;;;4.00;;
36787;SDS011;22738;45.560;9.434;2023-06-26T04:21:12;13.27;;;4.70;;
36787;SDS011;22738;45.560;9.434;2023-06-26T04:27:53;7.43;;;4.35;;
36787;SDS011;22738;45.560;9.434;2023-06-26T04:34:34;9.60;;;4.90;;
36787;SDS011;22738;45.560;9.434;2023-06-26T04:41:17;13.68;;;4.35;;
36787;SDS011;22738;45.560;9.434;2023-06-26T04:47:58;11.93;;;4.72;;
36787;SDS011;22738;45.560;9.434;2023-06-26T04:54:40;8.80;;;4.35;;
36787;SDS011;22738;45.560;9.434;2023-06-26T05:01:21;9.65;;;4.63;;
36787;SDS011;22738;45.560;9.434;2023-06-26T05:08:21;9.30;;;5.25;;
36787;SDS011;22738;45.560;9.434;2023-06-26T05:15:03;17.98;;;5.72;;
36787;SDS011;22738;45.560;9.434;2023-06-26T05:21:59;6.60;;;3.88;;
36787;SDS011;22738;45.560;9.434;2023-06-26T05:29:05;9.32;;;4.15;;
36787;SDS011;22738;45.560;9.434;2023-06-26T05:35:46;6.07;;;3.63;;
36787;SDS011;22738;45.560;9.434;2023-06-26T05:42:29;6.57;;;3.47;;
36787;SDS011;22738;45.560;9.434;2023-06-26T05:49:10;8.10;;;3.80;;
36787;SDS011;22738;45.560;9.434;2023-06-26T06:02:46;6.07;;;3.28;;
36787;SDS011;22738;45.560;9.434;2023-06-26T06:16:08;4.22;;;2.30;;
36787;SDS011;22738;45.560;9.434;2023-06-26T06:22:49;6.43;;;3.03;;
36787;SDS011;22738;45.560;9.434;2023-06-26T06:29:36;7.45;;;3.55;;
36787;SDS011;22738;45.560;9.434;2023-06-26T06:36:19;4.22;;;2.97;;
36787;SDS011;22738;45.560;9.434;2023-06-26T06:43:00;4.65;;;2.75;;
36787;SDS011;22738;45.560;9.434;2023-06-26T06:49:41;7.13;;;3.58;;
36787;SDS011;22738;45.560;9.434;2023-06-26T06:56:22;7.15;;;4.40;;
36787;SDS011;22738;45.560;9.434;2023-06-26T07:03:03;10.38;;;3.47;;
36787;SDS011;22738;45.560;9.434;2023-06-26T07:09:44;8.93;;;3.42;;
36787;SDS011;22738;45.560;9.434;2023-06-26T07:16:25;4.53;;;3.00;;
36787;SDS011;22738;45.560;9.434;2023-06-26T07:23:06;7.88;;;3.03;;
36787;SDS011;22738;45.560;9.434;2023-06-26T07:29:47;4.70;;;3.08;;
36787;SDS011;22738;45.560;9.434;2023-06-26T07:36:29;5.57;;;3.28;;
36787;SDS011;22738;45.560;9.434;2023-06-26T07:43:10;6.40;;;3.47;;
36787;SDS011;22738;45.560;9.434;2023-06-26T07:49:50;5.10;;;3.30;;
36787;SDS011;22738;45.560;9.434;2023-06-26T07:56:34;4.68;;;3.65;;
36787;SDS011;22738;45.560;9.434;2023-06-26T08:03:35;6.75;;;3.53;;
36787;SDS011;22738;45.560;9.434;2023-06-26T08:10:16;7.35;;;3.78;;
36787;SDS011;22738;45.560;9.434;2023-06-26T08:16:57;12.23;;;3.95;;
36787;SDS011;22738;45.560;9.434;2023-06-26T08:23:41;6.68;;;4.00;;
36787;SDS011;22738;45.560;9.434;2023-06-26T08:30:22;5.05;;;3.60;;
36787;SDS011;22738;45.560;9.434;2023-06-26T08:37:08;5.53;;;3.80;;
36787;SDS011;22738;45.560;9.434;2023-06-26T08:43:49;8.30;;;3.53;;
36787;SDS011;22738;45.560;9.434;2023-06-26T08:50:33;4.35;;;3.33;;
36787;SDS011;22738;45.560;9.434;2023-06-26T08:57:17;4.53;;;3.22;;
36787;SDS011;22738;45.560;9.434;2023-06-26T09:04:00;9.32;;;3.65;;
36787;SDS011;22738;45.560;9.434;2023-06-26T09:10:41;3.65;;;2.80;;
36787;SDS011;22738;45.560;9.434;2023-06-26T09:17:25;5.80;;;3.45;;
36787;SDS011;22738;45.560;9.434;2023-06-26T09:24:10;6.38;;;3.30;;
36787;SDS011;22738;45.560;9.434;2023-06-26T09:30:53;10.20;;;3.65;;
36787;SDS011;22738;45.560;9.434;2023-06-26T09:37:34;9.75;;;4.07;;
36787;SDS011;22738;45.560;9.434;2023-06-26T09:44:15;5.63;;;3.67;;
36787;SDS011;22738;45.560;9.434;2023-06-26T09:50:57;7.13;;;3.70;;
36787;SDS011;22738;45.560;9.434;2023-06-26T09:57:41;9.40;;;3.53;;
36787;SDS011;22738;45.560;9.434;2023-06-26T10:11:04;6.93;;;3.92;;
36787;SDS011;22738;45.560;9.434;2023-06-26T10:17:45;7.03;;;3.50;;
36787;SDS011;22738;45.560;9.434;2023-06-26T10:24:29;9.68;;;3.20;;
36787;SDS011;22738;45.560;9.434;2023-06-26T10:31:14;7.00;;;3.60;;
36787;SDS011;22738;45.560;9.434;2023-06-26T10:37:59;6.65;;;4.13;;
36787;SDS011;22738;45.560;9.434;2023-06-26T10:44:45;5.95;;;3.38;;
36787;SDS011;22738;45.560;9.434;2023-06-26T10:51:27;8.77;;;4.20;;
36787;SDS011;22738;45.560;9.434;2023-06-26T11:05:29;5.82;;;3.75;;
36787;SDS011;22738;45.560;9.434;2023-06-26T11:12:14;6.30;;;3.60;;
36787;SDS011;22738;45.560;9.434;2023-06-26T11:19:14;8.15;;;3.88;;
36787;SDS011;22738;45.560;9.434;2023-06-26T11:25:57;7.10;;;3.83;;
36787;SDS011;22738;45.560;9.434;2023-06-26T11:32:39;9.52;;;4.80;;
36787;SDS011;22738;45.560;9.434;2023-06-26T11:39:20;6.50;;;4.00;;
36787;SDS011;22738;45.560;9.434;2023-06-26T11:46:01;5.47;;;3.95;;
36787;SDS011;22738;45.560;9.434;2023-06-26T11:52:43;7.28;;;4.10;;
36787;SDS011;22738;45.560;9.434;2023-06-26T11:59:32;11.03;;;4.87;;
36787;SDS011;22738;45.560;9.434;2023-06-26T12:06:20;7.15;;;4.60;;
36787;SDS011;22738;45.560;9.434;2023-06-26T12:13:01;6.88;;;4.18;;
36787;SDS011;22738;45.560;9.434;2023-06-26T12:19:44;8.90;;;4.68;;
36787;SDS011;22738;45.560;9.434;2023-06-26T12:26:28;8.20;;;4.00;;
36787;SDS011;22738;45.560;9.434;2023-06-26T12:33:13;8.38;;;4.30;;
36787;SDS011;22738;45.560;9.434;2023-06-26T12:39:56;10.07;;;4.30;;
36787;SDS011;22738;45.560;9.434;2023-06-26T12:46:38;10.57;;;5.10;;
36787;SDS011;22738;45.560;9.434;2023-06-26T12:53:19;7.60;;;4.35;;
36787;SDS011;22738;45.560;9.434;2023-06-26T13:00:00;6.57;;;4.30;;
36787;SDS011;22738;45.560;9.434;2023-06-26T13:06:42;10.70;;;5.05;;
36787;SDS011;22738;45.560;9.434;2023-06-26T13:13:23;6.07;;;4.05;;
36787;SDS011;22738;45.560;9.434;2023-06-26T13:20:04;9.63;;;5.25;;
36787;SDS011;22738;45.560;9.434;2023-06-26T13:26:46;11.32;;;5.68;;
36787;SDS011;22738;45.560;9.434;2023-06-26T13:33:27;9.85;;;5.78;;
36787;SDS011;22738;45.560;9.434;2023-06-26T13:40:09;8.05;;;3.95;;
36787;SDS011;22738;45.560;9.434;2023-06-26T13:46:50;6.47;;;4.22;;
36787;SDS011;22738;45.560;9.434;2023-06-26T13:53:31;6.68;;;4.70;;
36787;SDS011;22738;45.560;9.434;2023-06-26T14:00:12;7.47;;;4.90;;
36787;SDS011;22738;45.560;9.434;2023-06-26T14:06:54;8.45;;;3.83;;
36787;SDS011;22738;45.560;9.434;2023-06-26T14:13:36;15.25;;;5.03;;
36787;SDS011;22738;45.560;9.434;2023-06-26T14:20:17;9.77;;;4.68;;
36787;SDS011;22738;45.560;9.434;2023-06-26T14:27:01;22.02;;;5.75;;
36787;SDS011;22738;45.560;9.434;2023-06-26T14:33:42;6.88;;;4.47;;
36787;SDS011;22738;45.560;9.434;2023-06-26T14:40:23;9.05;;;5.32;;
36787;SDS011;22738;45.560;9.434;2023-06-26T14:47:04;7.78;;;4.45;;
36787;SDS011;22738;45.560;9.434;2023-06-26T14:53:45;8.25;;;4.82;;
36787;SDS011;22738;45.560;9.434;2023-06-26T15:07:10;14.02;;;5.07;;
36787;SDS011;22738;45.560;9.434;2023-06-26T15:13:52;8.60;;;4.55;;
36787;SDS011;22738;45.560;9.434;2023-06-26T15:20:33;10.55;;;4.78;;
36787;SDS011;22738;45.560;9.434;2023-06-26T15:27:14;8.98;;;5.18;;
36787;SDS011;22738;45.560;9.434;2023-06-26T15:33:55;11.25;;;5.13;;
36787;SDS011;22738;45.560;9.434;2023-06-26T15:40:36;7.40;;;5.20;;
36787;SDS011;22738;45.560;9.434;2023-06-26T15:47:17;11.00;;;5.18;;
36787;SDS011;22738;45.560;9.434;2023-06-26T15:53:58;11.38;;;5.05;;
36787;SDS011;22738;45.560;9.434;2023-06-26T16:00:40;7.05;;;4.85;;
36787;SDS011;22738;45.560;9.434;2023-06-26T16:07:21;11.68;;;5.68;;
36787;SDS011;22738;45.560;9.434;2023-06-26T16:14:02;11.68;;;5.15;;
36787;SDS011;22738;45.560;9.434;2023-06-26T16:20:44;8.37;;;4.60;;
36787;SDS011;22738;45.560;9.434;2023-06-26T16:27:26;6.03;;;4.18;;
36787;SDS011;22738;45.560;9.434;2023-06-26T16:34:07;9.05;;;4.75;;
36787;SDS011;22738;45.560;9.434;2023-06-26T16:40:48;8.85;;;4.20;;
36787;SDS011;22738;45.560;9.434;2023-06-26T16:47:29;10.88;;;4.90;;
36787;SDS011;22738;45.560;9.434;2023-06-26T16:54:11;7.00;;;3.83;;
36787;SDS011;22738;45.560;9.434;2023-06-26T17:00:52;8.43;;;4.93;;
36787;SDS011;22738;45.560;9.434;2023-06-26T17:07:33;9.02;;;4.45;;
36787;SDS011;22738;45.560;9.434;2023-06-26T17:14:17;6.53;;;4.57;;
36787;SDS011;22738;45.560;9.434;2023-06-26T17:20:58;8.15;;;5.10;;
36787;SDS011;22738;45.560;9.434;2023-06-26T17:27:39;11.10;;;4.57;;
36787;SDS011;22738;45.560;9.434;2023-06-26T17:34:20;10.93;;;5.03;;
36787;SDS011;22738;45.560;9.434;2023-06-26T17:41:01;9.48;;;4.50;;
36787;SDS011;22738;45.560;9.434;2023-06-26T17:47:42;15.77;;;5.13;;
36787;SDS011;22738;45.560;9.434;2023-06-26T17:54:23;7.10;;;5.00;;
36787;SDS011;22738;45.560;9.434;2023-06-26T18:01:05;10.90;;;4.97;;
36787;SDS011;22738;45.560;9.434;2023-06-26T18:07:46;10.13;;;5.07;;
36787;SDS011;22738;45.560;9.434;2023-06-26T18:14:27;9.63;;;4.78;;
36787;SDS011;22738;45.560;9.434;2023-06-26T18:21:08;11.20;;;5.53;;
36787;SDS011;22738;45.560;9.434;2023-06-26T18:27:49;9.55;;;5.43;;
36787;SDS011;22738;45.560;9.434;2023-06-26T18:34:30;9.18;;;5.55;;
36787;SDS011;22738;45.560;9.434;2023-06-26T18:41:11;6.57;;;4.13;;
36787;SDS011;22738;45.560;9.434;2023-06-26T18:47:53;17.57;;;5.03;;
36787;SDS011;22738;45.560;9.434;2023-06-26T18:54:34;8.90;;;5.25;;
36787;SDS011;22738;45.560;9.434;2023-06-26T19:01:15;11.65;;;5.22;;
36787;SDS011;22738;45.560;9.434;2023-06-26T19:07:56;7.60;;;5.07;;
36787;SDS011;22738;45.560;9.434;2023-06-26T19:14:37;10.05;;;4.72;;
36787;SDS011;22738;45.560;9.434;2023-06-26T19:21:21;7.60;;;4.68;;
36787;SDS011;22738;45.560;9.434;2023-06-26T19:28:02;9.02;;;4.38;;
36787;SDS011;22738;45.560;9.434;2023-06-26T19:34:43;10.98;;;5.38;;
36787;SDS011;22738;45.560;9.434;2023-06-26T19:41:24;12.40;;;5.68;;
36787;SDS011;22738;45.560;9.434;2023-06-26T19:48:05;9.43;;;4.80;;
36787;SDS011;22738;45.560;9.434;2023-06-26T19:54:46;11.68;;;6.07;;
36787;SDS011;22738;45.560;9.434;2023-06-26T20:01:27;12.63;;;5.70;;
36787;SDS011;22738;45.560;9.434;2023-06-26T20:08:08;12.55;;;6.15;;
36787;SDS011;22738;45.560;9.434;2023-06-26T20:14:49;17.30;;;6.43;;
36787;SDS011;22738;45.560;9.434;2023-06-26T20:21:30;19.23;;;6.65;;
36787;SDS011;22738;45.560;9.434;2023-06-26T20:28:12;10.23;;;6.15;;
36787;SDS011;22738;45.560;9.434;2023-06-26T20:34:53;9.15;;;6.05;;
36787;SDS011;22738;45.560;9.434;2023-06-26T20:41:34;7.57;;;5.13;;
36787;SDS011;22738;45.560;9.434;2023-06-26T20:48:16;12.70;;;5.20;;
36787;SDS011;22738;45.560;9.434;2023-06-26T20:54:57;10.95;;;5.95;;
36787;SDS011;22738;45.560;9.434;2023-06-26T21:01:38;8.40;;;5.80;;
36787;SDS011;22738;45.560;9.434;2023-06-26T21:08:19;11.90;;;6.50;;
36787;SDS011;22738;45.560;9.434;2023-06-26T21:15:01;10.85;;;6.07;;
36787;SDS011;22738;45.560;9.434;2023-06-26T21:21:42;15.63;;;6.97;;
36787;SDS011;22738;45.560;9.434;2023-06-26T21:28:23;13.68;;;7.65;;
36787;SDS011;22738;45.560;9.434;2023-06-26T21:35:04;14.07;;;7.25;;
36787;SDS011;22738;45.560;9.434;2023-06-26T21:41:46;16.25;;;7.72;;
36787;SDS011;22738;45.560;9.434;2023-06-26T21:48:27;11.85;;;6.95;;
36787;SDS011;22738;45.560;9.434;2023-06-26T21:55:08;15.98;;;7.60;;
36787;SDS011;22738;45.560;9.434;2023-06-26T22:01:49;12.18;;;7.25;;
36787;SDS011;22738;45.560;9.434;2023-06-26T22:08:30;12.48;;;7.97;;
36787;SDS011;22738;45.560;9.434;2023-06-26T22:15:12;16.60;;;8.40;;
36787;SDS011;22738;45.560;9.434;2023-06-26T22:21:53;15.55;;;8.07;;
36787;SDS011;22738;45.560;9.434;2023-06-26T22:28:34;16.23;;;8.80;;
36787;SDS011;22738;45.560;9.434;2023-06-26T22:35:16;14.45;;;8.63;;
36787;SDS011;22738;45.560;9.434;2023-06-26T22:41:57;10.73;;;8.18;;
36787;SDS011;22738;45.560;9.434;2023-06-26T22:48:39;18.65;;;9.02;;
36787;SDS011;22738;45.560;9.434;2023-06-26T22:55:20;13.52;;;8.05;;
36787;SDS011;22738;45.560;9.434;2023-06-26T23:02:01;14.70;;;8.38;;
36787;SDS011;22738;45.560;9.434;2023-06-26T23:08:44;12.60;;;7.13;;
36787;SDS011;22738;45.560;9.434;2023-06-26T23:15:25;10.18;;;7.18;;
36787;SDS011;22738;45.560;9.434;2023-06-26T23:22:06;11.90;;;7.25;;
36787;SDS011;22738;45.560;9.434;2023-06-26T23:28:50;13.88;;;7.78;;
36787;SDS011;22738;45.560;9.434;2023-06-26T23:35:31;11.57;;;7.75;;
36787;SDS011;22738;45.560;9.434;2023-06-26T23:42:12;12.90;;;8.10;;
36787;SDS011;22738;45.560;9.434;2023-06-26T23:48:56;20.38;;;11.02;;
36787;SDS011;22738;45.560;9.434;2023-06-26T23:55:37;18.55;;;10.77;;
